createdAt,value
2018-10-09T00:00:45.392Z,25.80
2018-10-09T00:03:14.583Z,28.77
2018-10-09T00:05:43.822Z,28.33
2018-10-09T00:08:13.111Z,29.47
2018-10-09T00:10:48.808Z,30.30
2018-10-09T00:13:18.080Z,30.83
2018-10-09T00:15:47.319Z,31.20
2018-10-09T00:18:16.577Z,30.43
2018-10-09T00:20:45.891Z,31.10
2018-10-09T00:23:15.207Z,31.47
2018-10-09T00:25:44.481Z,32.60
2018-10-09T00:28:13.659Z,30.90
2018-10-09T00:30:42.977Z,30.30
2018-10-09T00:33:12.253Z,30.03
2018-10-09T00:35:41.531Z,32.07
2018-10-09T00:38:11.317Z,35.80
2018-10-09T00:40:40.470Z,32.23
2018-10-09T00:43:09.783Z,30.90
2018-10-09T00:45:39.102Z,32.20
2018-10-09T00:48:08.402Z,32.70
2018-10-09T00:50:37.690Z,29.50
2018-10-09T00:53:07.011Z,30.77
2018-10-09T00:55:36.242Z,31.77
2018-10-09T00:58:05.442Z,28.63
2018-10-09T01:00:34.574Z,28.80
2018-10-09T01:03:03.834Z,30.00
2018-10-09T01:05:33.055Z,29.83
2018-10-09T01:08:02.352Z,29.87
2018-10-09T01:10:31.534Z,30.23
2018-10-09T01:13:00.746Z,31.03
2018-10-09T01:15:30.175Z,29.87
2018-10-09T01:17:59.347Z,32.20
2018-10-09T01:20:31.906Z,28.57
2018-10-09T01:23:02.230Z,28.03
2018-10-09T01:25:31.446Z,26.63
2018-10-09T01:28:00.891Z,28.00
2018-10-09T01:30:30.207Z,28.60
2018-10-09T01:32:59.494Z,25.80
2018-10-09T01:35:28.658Z,26.73
2018-10-09T01:37:57.975Z,27.57
2018-10-09T01:40:27.294Z,29.67
2018-10-09T01:42:56.682Z,29.17
2018-10-09T01:45:26.010Z,24.73
2018-10-09T01:47:55.295Z,27.43
2018-10-09T01:50:24.546Z,27.57
2018-10-09T01:52:53.974Z,29.30
2018-10-09T01:55:23.154Z,30.37
2018-10-09T01:57:52.334Z,31.57
2018-10-09T02:00:21.526Z,30.53
2018-10-09T02:02:50.634Z,29.77
2018-10-09T02:05:19.841Z,30.03
2018-10-09T02:07:49.028Z,31.13
2018-10-09T02:10:18.114Z,32.43
2018-10-09T02:12:47.397Z,31.97
2018-10-09T02:15:16.509Z,31.70
2018-10-09T02:17:45.663Z,32.93
2018-10-09T02:20:14.910Z,31.97
2018-10-09T02:22:44.164Z,29.93
2018-10-09T02:25:13.467Z,29.60
2018-10-09T02:27:42.747Z,29.17
2018-10-09T02:30:12.056Z,30.80
2018-10-09T02:32:41.330Z,32.23
2018-10-09T02:35:10.497Z,31.20
2018-10-09T02:37:39.699Z,34.23
2018-10-09T02:40:08.836Z,34.43
2018-10-09T02:42:38.160Z,32.63
2018-10-09T02:45:07.439Z,34.33
2018-10-09T02:47:36.638Z,31.87
2018-10-09T02:50:06.356Z,30.33
2018-10-09T02:52:35.546Z,29.87
2018-10-09T02:55:04.843Z,31.83
2018-10-09T02:57:34.299Z,29.53
2018-10-09T03:00:03.546Z,31.03
2018-10-09T03:02:32.847Z,32.73
2018-10-09T03:05:02.187Z,30.57
2018-10-09T03:07:31.370Z,29.53
2018-10-09T03:10:00.645Z,28.47
2018-10-09T03:12:29.810Z,29.30
2018-10-09T03:14:59.020Z,29.37
2018-10-09T03:17:28.199Z,29.60
2018-10-09T03:19:57.415Z,31.90
2018-10-09T03:22:26.802Z,32.53
2018-10-09T03:24:56.268Z,28.73
2018-10-09T03:27:25.535Z,30.90
2018-10-09T03:29:54.950Z,28.93
2018-10-09T03:32:24.215Z,39.93
2018-10-09T03:34:53.620Z,29.70
2018-10-09T03:37:22.942Z,30.20
2018-10-09T03:39:52.160Z,28.60
2018-10-09T03:42:21.462Z,26.90
2018-10-09T03:44:50.578Z,25.63
2018-10-09T03:47:19.706Z,24.27
2018-10-09T03:49:48.935Z,27.03
2018-10-09T03:52:18.142Z,28.40
2018-10-09T03:54:47.414Z,29.27
2018-10-09T03:57:16.686Z,29.00
2018-10-09T03:59:45.770Z,31.63
2018-10-09T04:02:15.016Z,32.57
2018-10-09T04:04:44.280Z,31.43
2018-10-09T04:07:13.475Z,29.70
2018-10-09T04:09:42.683Z,27.77
2018-10-09T04:12:12.039Z,26.03
2018-10-09T04:14:41.283Z,29.40
2018-10-09T04:17:10.555Z,25.00
2018-10-09T04:19:39.815Z,27.70
2018-10-09T04:22:09.445Z,28.10
2018-10-09T04:24:38.751Z,23.07
2018-10-09T04:27:08.054Z,26.60
2018-10-09T04:29:37.324Z,25.47
2018-10-09T04:32:06.726Z,26.87
2018-10-09T04:34:36.035Z,28.60
2018-10-09T04:37:05.292Z,28.07
2018-10-09T04:39:34.530Z,26.90
2018-10-09T04:42:03.826Z,26.87
2018-10-09T04:44:32.999Z,27.37
2018-10-09T04:49:56.427Z,25.83
2018-10-09T04:52:25.555Z,29.93
2018-10-09T04:54:54.687Z,27.00
2018-10-09T04:57:23.855Z,27.90
2018-10-09T04:59:52.950Z,25.23
2018-10-09T05:02:22.170Z,26.13
2018-10-09T05:04:51.346Z,24.63
2018-10-09T05:07:20.247Z,25.73
2018-10-09T05:09:49.070Z,26.43
2018-10-09T05:12:17.934Z,24.13
2018-10-09T05:14:46.787Z,24.93
2018-10-09T05:17:15.610Z,25.83
2018-10-09T05:19:44.502Z,24.70
2018-10-09T05:22:13.355Z,24.10
2018-10-09T05:24:42.183Z,24.67
2018-10-09T05:27:11.043Z,23.77
2018-10-09T05:29:39.893Z,23.53
2018-10-09T05:32:08.793Z,25.77
2018-10-09T05:34:37.632Z,26.40
2018-10-09T05:37:06.507Z,25.80
2018-10-09T05:39:35.342Z,26.43
2018-10-09T05:42:04.242Z,29.63
2018-10-09T05:44:33.115Z,31.50
2018-10-09T05:47:01.994Z,33.50
2018-10-09T05:49:30.853Z,30.40
2018-10-09T05:51:59.914Z,32.23
2018-10-09T05:54:28.774Z,35.53
2018-10-09T05:56:57.664Z,30.77
2018-10-09T05:59:26.540Z,31.70
2018-10-09T06:01:55.444Z,32.27
2018-10-09T06:04:24.278Z,29.77
2018-10-09T06:06:53.214Z,31.13
2018-10-09T06:09:22.094Z,29.83
2018-10-09T06:11:50.958Z,33.63
2018-10-09T06:14:19.819Z,30.30
2018-10-09T06:16:48.682Z,29.80
2018-10-09T06:19:17.556Z,28.90
2018-10-09T06:21:46.416Z,24.20
2018-10-09T06:24:15.250Z,23.23
2018-10-09T06:26:44.114Z,23.43
2018-10-09T06:29:12.947Z,24.17
2018-10-09T06:31:41.871Z,24.47
2018-10-09T06:34:10.753Z,26.60
2018-10-09T06:36:39.582Z,22.93
2018-10-09T06:39:10.374Z,22.43
2018-10-09T06:41:39.857Z,22.67
2018-10-09T06:44:08.719Z,23.07
2018-10-09T06:46:37.558Z,22.80
2018-10-09T06:49:06.426Z,22.53
2018-10-09T06:51:35.271Z,23.60
2018-10-09T06:54:04.248Z,23.47
2018-10-09T06:56:33.083Z,23.67
2018-10-09T06:59:01.923Z,23.40
2018-10-09T07:01:30.797Z,21.33
2018-10-09T07:03:59.637Z,19.37
2018-10-09T07:06:28.553Z,21.13
2018-10-09T07:08:57.459Z,21.73
2018-10-09T07:11:26.393Z,21.37
2018-10-09T07:13:55.220Z,22.00
2018-10-09T07:16:24.127Z,20.90
2018-10-09T07:18:52.998Z,21.00
2018-10-09T07:21:21.846Z,21.20
2018-10-09T07:23:50.707Z,20.40
2018-10-09T07:26:19.545Z,19.33
2018-10-09T07:28:48.380Z,18.53
2018-10-09T07:31:17.231Z,17.70
2018-10-09T07:33:46.068Z,18.97
2018-10-09T07:36:14.951Z,20.40
2018-10-09T07:38:43.818Z,18.83
2018-10-09T07:41:12.683Z,20.57
2018-10-09T07:43:41.520Z,19.77
2018-10-09T07:46:10.403Z,21.67
2018-10-09T07:48:39.266Z,20.63
2018-10-09T07:51:08.486Z,19.67
2018-10-09T07:53:37.355Z,19.60
2018-10-09T07:56:06.222Z,20.27
2018-10-09T07:58:35.090Z,18.90
2018-10-09T08:01:03.985Z,21.27
2018-10-09T08:03:32.840Z,20.37
2018-10-09T08:06:01.738Z,21.37
2018-10-09T08:08:30.588Z,21.73
2018-10-09T08:10:59.661Z,22.30
2018-10-09T08:13:28.562Z,22.23
2018-10-09T08:15:57.391Z,22.00
2018-10-09T08:18:26.271Z,20.60
2018-10-09T08:20:55.103Z,20.20
2018-10-09T08:23:23.932Z,20.57
2018-10-09T08:25:52.855Z,20.63
2018-10-09T08:28:21.712Z,20.33
2018-10-09T08:30:50.543Z,21.27
2018-10-09T08:33:19.418Z,18.43
2018-10-09T08:35:48.278Z,18.37
2018-10-09T08:38:17.110Z,20.33
2018-10-09T08:40:45.955Z,19.43
2018-10-09T08:43:14.803Z,18.47
2018-10-09T08:45:43.650Z,19.20
2018-10-09T08:48:12.488Z,16.70
2018-10-09T08:50:41.370Z,18.40
2018-10-09T08:53:10.204Z,18.60
2018-10-09T08:55:39.303Z,19.07
2018-10-09T08:58:08.179Z,19.57
2018-10-09T09:00:37.028Z,19.83
2018-10-09T09:03:05.931Z,19.80
2018-10-09T09:05:34.771Z,18.53
2018-10-09T09:08:03.635Z,18.33
2018-10-09T09:10:32.470Z,18.97
2018-10-09T09:13:01.319Z,19.50
2018-10-09T09:15:30.219Z,19.90
2018-10-09T09:17:59.038Z,20.97
2018-10-09T09:20:28.039Z,19.70
2018-10-09T09:22:56.963Z,17.60
2018-10-09T09:25:25.817Z,18.00
2018-10-09T09:27:54.679Z,18.23
2018-10-09T09:30:23.519Z,18.17
2018-10-09T09:32:52.630Z,17.93
2018-10-09T09:35:21.485Z,18.00
2018-10-09T09:37:50.344Z,17.63
2018-10-09T09:40:19.207Z,19.40
2018-10-09T09:42:48.062Z,16.63
2018-10-09T09:45:16.979Z,17.70
2018-10-09T09:47:45.825Z,18.33
2018-10-09T09:50:14.667Z,18.33
2018-10-09T09:52:43.517Z,17.10
2018-10-09T09:55:12.363Z,17.60
2018-10-09T09:57:41.224Z,17.73
2018-10-09T10:00:14.977Z,17.10
2018-10-09T10:02:43.856Z,17.23
2018-10-09T10:05:12.735Z,15.73
2018-10-09T10:07:41.582Z,17.20
2018-10-09T10:10:10.477Z,17.13
2018-10-09T10:12:39.332Z,15.97
2018-10-09T10:15:08.339Z,15.20
2018-10-09T10:17:37.207Z,16.13
2018-10-09T10:20:06.150Z,16.47
2018-10-09T10:22:34.977Z,17.37
2018-10-09T10:25:03.851Z,15.17
2018-10-09T10:27:32.870Z,15.87
2018-10-09T10:30:01.707Z,16.63
2018-10-09T10:32:30.546Z,17.07
2018-10-09T10:34:59.394Z,16.10
2018-10-09T10:37:28.239Z,15.33
2018-10-09T10:39:57.170Z,18.47
2018-10-09T10:42:26.022Z,16.43
2018-10-09T10:44:54.890Z,14.90
2018-10-09T10:47:23.744Z,14.23
2018-10-09T10:49:52.603Z,15.83
2018-10-09T10:52:21.449Z,13.40
2018-10-09T10:54:50.313Z,14.90
2018-10-09T10:57:19.172Z,16.10
2018-10-09T10:59:48.004Z,13.90
2018-10-09T11:02:16.863Z,15.43
2018-10-09T11:04:45.735Z,15.17
2018-10-09T11:07:14.602Z,16.10
2018-10-09T11:09:43.447Z,15.10
2018-10-09T11:12:12.303Z,14.20
2018-10-09T11:14:41.157Z,14.60
2018-10-09T11:17:10.075Z,13.80
2018-10-09T11:19:39.163Z,13.97
2018-10-09T11:22:08.202Z,11.13
2018-10-09T11:24:37.056Z,9.80
2018-10-09T11:27:05.959Z,9.07
2018-10-09T11:29:34.808Z,9.10
2018-10-09T11:32:03.668Z,9.50
2018-10-09T11:34:32.555Z,9.60
2018-10-09T11:37:01.451Z,10.27
2018-10-09T11:39:30.326Z,8.60
2018-10-09T11:41:59.180Z,8.60
2018-10-09T11:44:28.066Z,8.87
2018-10-09T11:46:56.995Z,8.30
2018-10-09T11:49:25.859Z,8.33
2018-10-09T11:51:54.694Z,8.97
2018-10-09T11:54:23.514Z,9.60
2018-10-09T11:56:52.361Z,8.13
2018-10-09T11:59:21.211Z,8.20
2018-10-09T12:01:50.136Z,7.87
2018-10-09T12:04:18.919Z,9.07
2018-10-09T12:06:47.763Z,10.57
2018-10-09T12:09:16.591Z,12.30
2018-10-09T12:11:45.474Z,8.50
2018-10-09T12:14:14.354Z,11.37
2018-10-09T12:16:43.255Z,12.33
2018-10-09T12:19:12.146Z,13.03
2018-10-09T12:21:40.995Z,13.27
2018-10-09T12:24:09.867Z,11.40
2018-10-09T12:26:38.738Z,8.50
2018-10-09T12:29:07.718Z,11.23
2018-10-09T12:31:36.619Z,10.00
2018-10-09T12:34:06.082Z,10.60
2018-10-09T12:36:35.055Z,10.53
2018-10-09T12:39:04.926Z,10.10
2018-10-09T12:41:33.891Z,8.87
2018-10-09T12:44:02.812Z,8.67
2018-10-09T12:46:31.591Z,8.30
2018-10-09T12:49:00.471Z,7.53
2018-10-09T12:51:29.338Z,7.13
2018-10-09T12:53:58.186Z,7.13
2018-10-09T12:56:27.071Z,7.70
2018-10-09T12:58:55.921Z,7.00
2018-10-09T13:01:24.811Z,7.57
2018-10-09T13:03:53.716Z,7.77
2018-10-09T13:06:22.604Z,7.83
2018-10-09T13:08:51.443Z,6.90
2018-10-09T13:11:20.320Z,6.37
2018-10-09T13:13:49.203Z,6.87
2018-10-09T13:16:18.331Z,6.40
2018-10-09T13:18:47.199Z,6.50
2018-10-09T13:21:16.256Z,6.93
2018-10-09T13:23:44.928Z,6.83
2018-10-09T13:26:14.083Z,7.77
2018-10-09T13:28:42.905Z,7.40
2018-10-09T13:31:11.755Z,6.90
2018-10-09T13:33:40.586Z,7.30
2018-10-09T13:36:09.460Z,6.13
2018-10-09T13:38:38.311Z,7.03
2018-10-09T13:41:07.229Z,7.53
2018-10-09T13:43:36.037Z,7.00
2018-10-09T13:46:04.874Z,6.97
2018-10-09T13:48:33.716Z,8.27
2018-10-09T13:51:02.583Z,8.27
2018-10-09T13:53:31.426Z,6.70
2018-10-09T13:56:00.319Z,7.23
2018-10-09T13:58:29.198Z,7.43
2018-10-09T14:00:58.050Z,7.67
2018-10-09T14:03:26.879Z,7.57
2018-10-09T14:05:55.752Z,7.20
2018-10-09T14:08:24.599Z,7.17
2018-10-09T14:10:53.443Z,7.03
2018-10-09T14:13:22.263Z,6.93
2018-10-09T14:15:51.115Z,7.67
2018-10-09T14:18:19.959Z,7.17
2018-10-09T14:20:48.813Z,7.30
2018-10-09T14:23:17.707Z,7.40
2018-10-09T14:25:46.563Z,7.27
2018-10-09T14:28:15.405Z,7.93
2018-10-09T14:30:44.276Z,6.87
2018-10-09T14:33:13.123Z,8.93
2018-10-09T14:35:42.048Z,6.97
2018-10-09T14:38:10.995Z,9.13
2018-10-09T14:40:39.855Z,9.10
2018-10-09T14:43:08.727Z,10.27
2018-10-09T14:45:37.602Z,9.40
2018-10-09T14:48:06.455Z,9.53
2018-10-09T14:50:35.299Z,9.47
2018-10-09T14:53:04.124Z,11.03
2018-10-09T14:55:33.019Z,8.73
2018-10-09T14:58:01.883Z,9.47
2018-10-09T15:00:30.743Z,9.63
2018-10-09T15:02:59.602Z,10.27
2018-10-09T15:05:28.568Z,9.67
2018-10-09T15:07:57.403Z,9.73
2018-10-09T15:10:26.262Z,10.40
2018-10-09T15:12:55.108Z,9.33
2018-10-09T15:15:23.975Z,9.03
2018-10-09T15:17:52.848Z,10.63
2018-10-09T15:20:21.699Z,10.17
2018-10-09T15:22:50.551Z,10.33
2018-10-09T15:25:19.393Z,9.57
2018-10-09T15:27:48.228Z,10.40
2018-10-09T15:30:17.103Z,10.07
2018-10-09T15:32:45.967Z,9.93
2018-10-09T15:35:14.846Z,11.67
2018-10-09T15:37:43.727Z,11.13
2018-10-09T15:40:12.567Z,9.40
2018-10-09T15:42:41.499Z,11.23
2018-10-09T15:45:10.392Z,11.07
2018-10-09T15:47:39.296Z,12.60
2018-10-09T15:50:08.142Z,11.37
2018-10-09T15:52:37.040Z,12.00
2018-10-09T15:55:06.027Z,13.73
2018-10-09T15:57:34.879Z,12.50
2018-10-09T16:00:03.855Z,13.00
2018-10-09T16:02:32.735Z,14.27
2018-10-09T16:05:01.600Z,14.00
2018-10-09T16:07:30.463Z,14.20
2018-10-09T16:09:59.319Z,14.57
2018-10-09T16:12:28.163Z,14.03
2018-10-09T16:14:57.015Z,13.50
2018-10-09T16:17:25.868Z,15.00
2018-10-09T16:19:54.723Z,14.57
2018-10-09T16:22:23.590Z,14.93
2018-10-09T16:24:52.455Z,14.93
2018-10-09T16:27:21.327Z,15.70
2018-10-09T16:29:50.219Z,15.60
2018-10-09T16:32:19.124Z,16.37
2018-10-09T16:34:47.931Z,15.43
2018-10-09T16:37:16.783Z,17.13
2018-10-09T16:39:45.646Z,14.10
2018-10-09T16:42:14.503Z,15.93
2018-10-09T16:44:43.364Z,15.73
2018-10-09T16:47:12.222Z,17.77
2018-10-09T16:49:41.062Z,17.70
2018-10-09T16:52:09.911Z,17.70
2018-10-09T16:54:39.466Z,16.13
2018-10-09T16:57:08.307Z,16.57
2018-10-09T16:59:37.135Z,16.83
2018-10-09T17:02:06.462Z,17.30
2018-10-09T17:04:35.348Z,15.83
2018-10-09T17:07:04.260Z,16.17
2018-10-09T17:09:33.131Z,17.07
2018-10-09T17:12:01.997Z,16.17
2018-10-09T17:14:30.844Z,17.60
2018-10-09T17:16:59.727Z,15.87
2018-10-09T17:19:28.559Z,17.53
2018-10-09T17:21:57.399Z,17.33
2018-10-09T17:24:27.148Z,19.17
2018-10-09T17:26:56.055Z,16.90
2018-10-09T17:29:24.904Z,17.40
2018-10-09T17:31:53.769Z,16.97
2018-10-09T17:34:22.587Z,18.20
2018-10-09T17:36:51.495Z,17.37
2018-10-09T17:39:20.433Z,18.27
2018-10-09T17:41:49.238Z,20.17
2018-10-09T17:44:18.093Z,18.30
2018-10-09T17:46:46.980Z,17.40
2018-10-09T17:49:15.828Z,19.47
2018-10-09T17:51:44.672Z,18.37
2018-10-09T17:54:13.501Z,18.37
2018-10-09T17:56:42.362Z,19.17
2018-10-09T17:59:11.187Z,16.33
2018-10-09T18:01:40.070Z,18.67
2018-10-09T18:04:08.915Z,18.47
2018-10-09T18:06:37.780Z,19.77
2018-10-09T18:09:10.075Z,20.57
2018-10-09T18:11:39.022Z,18.57
2018-10-09T18:14:07.907Z,19.07
2018-10-09T18:16:36.787Z,18.73
2018-10-09T18:19:05.652Z,20.53
2018-10-09T18:21:35.447Z,20.47
2018-10-09T18:24:04.829Z,19.47
2018-10-09T18:26:33.686Z,19.97
2018-10-09T18:29:02.529Z,19.07
2018-10-09T18:31:31.398Z,21.50
2018-10-09T18:34:00.259Z,20.33
2018-10-09T18:36:29.267Z,21.37
2018-10-09T18:38:58.550Z,19.93
2018-10-09T18:41:27.909Z,19.43
2018-10-09T18:43:57.027Z,20.10
2018-10-09T18:46:26.346Z,22.93
2018-10-09T18:48:55.515Z,21.27
2018-10-09T18:51:24.781Z,18.87
2018-10-09T18:53:53.614Z,20.67
2018-10-09T18:56:22.478Z,21.37
2018-10-09T18:58:51.371Z,21.47
2018-10-09T19:01:20.174Z,18.97
2018-10-09T19:03:49.022Z,21.07
2018-10-09T19:06:17.896Z,20.50
2018-10-09T19:08:46.715Z,19.63
2018-10-09T19:11:15.654Z,21.27
2018-10-09T19:13:44.473Z,22.73
2018-10-09T19:16:14.177Z,22.13
2018-10-09T19:18:43.030Z,22.43
2018-10-09T19:21:11.858Z,21.40
2018-10-09T19:23:40.732Z,21.97
2018-10-09T19:26:09.613Z,21.97
2018-10-09T19:28:38.527Z,22.87
2018-10-09T19:31:07.896Z,20.37
2018-10-09T19:33:37.067Z,22.40
2018-10-09T19:36:05.931Z,21.27
2018-10-09T19:38:34.771Z,22.20
2018-10-09T19:41:03.611Z,22.60
2018-10-09T19:43:32.479Z,22.60
2018-10-09T19:46:01.306Z,21.80
2018-10-09T19:48:30.132Z,22.97
2018-10-09T19:50:59.194Z,23.53
2018-10-09T19:53:27.968Z,23.87
2018-10-09T19:55:56.806Z,22.40
2018-10-09T19:58:25.636Z,21.70
2018-10-09T20:00:54.479Z,24.03
2018-10-09T20:03:23.315Z,22.67
2018-10-09T20:05:52.166Z,24.13
2018-10-09T20:08:20.994Z,22.03
2018-10-09T20:10:49.867Z,24.97
2018-10-09T20:13:18.720Z,26.47
2018-10-09T20:15:47.566Z,25.10
2018-10-09T20:18:16.410Z,24.13
2018-10-09T20:20:45.289Z,22.47
2018-10-09T20:23:14.122Z,23.20
2018-10-09T20:25:42.977Z,22.73
2018-10-09T20:28:11.811Z,22.07
2018-10-09T20:30:40.658Z,24.20
2018-10-09T20:33:09.800Z,24.67
2018-10-09T20:35:38.712Z,25.03
2018-10-09T20:38:07.838Z,27.70
2018-10-09T20:40:37.126Z,26.73
2018-10-09T20:43:05.971Z,26.23
2018-10-09T20:45:34.814Z,28.50
2018-10-09T20:48:03.650Z,24.93
2018-10-09T20:50:32.496Z,25.37
2018-10-09T20:53:01.319Z,25.30
2018-10-09T20:55:30.162Z,25.27
2018-10-09T20:57:58.988Z,26.43
2018-10-09T21:00:27.841Z,24.40
2018-10-09T21:02:56.687Z,26.53
2018-10-09T21:05:25.519Z,25.17
2018-10-09T21:07:54.351Z,24.87
2018-10-09T21:10:23.170Z,26.43
2018-10-09T21:12:52.024Z,26.33
2018-10-09T21:15:20.926Z,26.63
2018-10-09T21:17:49.926Z,28.83
2018-10-09T21:20:18.626Z,26.87
2018-10-09T21:22:47.475Z,26.27
2018-10-09T21:25:16.346Z,28.97
2018-10-09T21:27:45.263Z,29.03
2018-10-09T21:30:14.579Z,27.77
2018-10-09T21:32:43.735Z,25.47
2018-10-09T21:35:12.576Z,28.60
2018-10-09T21:37:41.411Z,27.97
2018-10-09T21:40:10.232Z,26.27
2018-10-09T21:42:39.332Z,27.30
2018-10-09T21:45:08.674Z,26.37
2018-10-09T21:47:38.513Z,27.57
2018-10-09T21:50:07.398Z,25.87
2018-10-09T21:52:36.235Z,26.37
2018-10-09T21:55:05.130Z,25.07
2018-10-09T21:57:33.951Z,27.37
2018-10-09T22:00:02.804Z,28.10
2018-10-09T22:02:31.614Z,26.17
2018-10-09T22:05:00.515Z,27.03
2018-10-09T22:07:29.379Z,31.80
2018-10-09T22:09:58.222Z,27.57
2018-10-09T22:12:27.054Z,27.93
2018-10-09T22:14:55.887Z,28.50
2018-10-09T22:17:24.731Z,30.97
2018-10-09T22:19:53.551Z,31.30
2018-10-09T22:22:22.419Z,27.93
2018-10-09T22:24:51.231Z,29.57
2018-10-09T22:27:20.083Z,28.40
2018-10-09T22:29:48.920Z,29.20
2018-10-09T22:32:18.088Z,28.30
2018-10-09T22:34:47.368Z,28.23
2018-10-09T22:37:16.235Z,29.73
2018-10-09T22:39:45.054Z,28.67
2018-10-09T22:42:14.427Z,29.90
2018-10-09T22:44:43.623Z,29.20
2018-10-09T22:47:12.926Z,29.70
2018-10-09T22:49:42.180Z,30.27
2018-10-09T22:52:11.374Z,29.17
2018-10-09T22:54:40.222Z,29.93
2018-10-09T22:57:09.080Z,29.23
2018-10-09T22:59:37.895Z,29.40
2018-10-09T23:02:06.793Z,28.93
2018-10-09T23:04:35.627Z,29.80
2018-10-09T23:07:04.578Z,29.30
2018-10-09T23:09:33.407Z,31.30
2018-10-09T23:12:02.658Z,27.73
2018-10-09T23:14:31.496Z,26.07
2018-10-09T23:17:00.348Z,27.00
2018-10-09T23:19:29.532Z,28.87
2018-10-09T23:21:58.678Z,27.53
2018-10-09T23:24:28.047Z,30.47
2018-10-09T23:26:56.898Z,31.50
2018-10-09T23:29:25.732Z,29.50
2018-10-09T23:31:54.578Z,29.50
2018-10-09T23:34:23.399Z,29.47
2018-10-09T23:36:52.219Z,30.47
2018-10-09T23:39:21.047Z,29.47
2018-10-09T23:41:50.354Z,29.60
2018-10-09T23:44:19.627Z,28.67
2018-10-09T23:46:48.903Z,27.80
2018-10-09T23:49:17.729Z,28.13
2018-10-09T23:51:46.563Z,29.73
2018-10-09T23:54:15.435Z,29.50
2018-10-09T23:56:44.294Z,28.40
2018-10-09T23:59:13.136Z,27.43
